createdAt,value
2022-10-31T00:00:54.811Z,2.30
2022-10-31T00:03:21.991Z,2.40
2022-10-31T00:05:50.307Z,2.80
2022-10-31T00:08:18.067Z,2.00
2022-10-31T00:10:45.754Z,2.50
2022-10-31T00:13:13.536Z,1.80
2022-10-31T00:15:41.444Z,2.00
2022-10-31T00:18:09.334Z,1.80
2022-10-31T00:20:36.577Z,1.60
2022-10-31T00:23:04.035Z,1.60
2022-10-31T00:25:35.072Z,1.80
2022-10-31T00:28:02.539Z,1.90
2022-10-31T00:30:29.834Z,1.60
2022-10-31T00:32:57.154Z,1.90
2022-10-31T00:35:24.937Z,2.10
2022-10-31T00:37:53.386Z,2.20
2022-10-31T00:40:20.730Z,1.80
2022-10-31T00:42:47.828Z,2.20
2022-10-31T00:45:15.334Z,2.40
2022-10-31T00:47:42.346Z,2.20
2022-10-31T00:50:10.047Z,2.10
2022-10-31T00:52:37.422Z,2.20
2022-10-31T00:55:05.241Z,2.00
2022-10-31T00:57:32.521Z,1.80
2022-10-31T00:59:59.558Z,2.00
2022-10-31T01:02:26.709Z,2.20
2022-10-31T01:04:53.968Z,1.90
2022-10-31T01:07:21.676Z,2.80
2022-10-31T01:09:49.079Z,2.10
2022-10-31T01:12:16.272Z,2.50
2022-10-31T01:14:46.712Z,2.00
2022-10-31T01:17:14.420Z,2.30
2022-10-31T01:19:41.574Z,2.00
2022-10-31T01:22:08.548Z,2.70
2022-10-31T01:24:35.566Z,2.10
2022-10-31T01:27:03.359Z,2.50
2022-10-31T01:29:34.267Z,1.60
2022-10-31T01:32:01.271Z,2.90
2022-10-31T01:34:28.771Z,2.40
2022-10-31T01:36:55.918Z,2.40
2022-10-31T01:39:23.226Z,2.70
2022-10-31T01:41:52.374Z,1.60
2022-10-31T01:44:19.376Z,2.00
2022-10-31T01:46:58.585Z,2.60
2022-10-31T01:49:48.121Z,2.50
2022-10-31T01:52:34.421Z,2.30
2022-10-31T01:55:30.070Z,2.20
2022-10-31T01:58:00.815Z,2.20
2022-10-31T02:00:28.118Z,2.20
2022-10-31T02:02:57.536Z,2.50
2022-10-31T02:05:27.184Z,2.00
2022-10-31T02:08:00.430Z,2.00
2022-10-31T02:10:31.847Z,2.40
2022-10-31T02:12:59.836Z,2.90
2022-10-31T02:15:27.410Z,2.30
2022-10-31T02:17:54.470Z,1.70
2022-10-31T02:20:22.988Z,1.70
2022-10-31T02:23:12.210Z,1.90
2022-10-31T02:26:04.486Z,1.80
2022-10-31T02:28:40.978Z,2.10
2022-10-31T02:31:33.087Z,2.30
2022-10-31T02:34:04.124Z,1.80
2022-10-31T02:36:44.906Z,2.10
2022-10-31T02:39:20.221Z,1.60
2022-10-31T02:42:06.526Z,2.10
2022-10-31T02:44:44.293Z,1.70
2022-10-31T02:47:23.934Z,1.90
2022-10-31T02:50:12.061Z,1.80
2022-10-31T02:52:39.782Z,1.70
2022-10-31T02:55:14.286Z,1.30
2022-10-31T02:57:41.422Z,1.40
2022-10-31T03:00:09.508Z,2.00
2022-10-31T03:02:58.604Z,1.90
2022-10-31T03:05:51.193Z,1.60
2022-10-31T03:08:43.275Z,1.70
2022-10-31T03:11:10.300Z,1.70
2022-10-31T03:14:04.664Z,1.60
2022-10-31T03:16:37.035Z,1.40
2022-10-31T03:19:04.185Z,1.40
2022-10-31T03:21:45.164Z,2.00
2022-10-31T03:24:13.283Z,2.10
2022-10-31T03:26:43.653Z,2.10
2022-10-31T03:29:12.657Z,1.70
2022-10-31T03:31:47.684Z,1.40
2022-10-31T03:34:15.347Z,1.20
2022-10-31T03:36:42.680Z,1.80
2022-10-31T03:39:11.548Z,1.40
2022-10-31T03:41:41.912Z,1.80
2022-10-31T03:44:12.061Z,1.50
2022-10-31T03:46:40.360Z,2.10
2022-10-31T03:49:07.459Z,1.80
2022-10-31T03:51:37.729Z,1.60
2022-10-31T03:54:09.630Z,1.80
2022-10-31T03:56:38.852Z,1.70
2022-10-31T03:59:07.423Z,1.70
2022-10-31T04:01:37.403Z,1.20
2022-10-31T04:04:04.691Z,1.30
2022-10-31T04:06:31.776Z,1.40
2022-10-31T04:09:02.435Z,2.00
2022-10-31T04:11:32.842Z,1.60
2022-10-31T04:14:29.260Z,1.10
2022-10-31T04:16:56.905Z,1.30
2022-10-31T04:19:27.832Z,0.90
2022-10-31T04:21:54.891Z,1.80
2022-10-31T04:24:22.334Z,1.40
2022-10-31T04:26:49.332Z,0.80
2022-10-31T04:29:16.737Z,1.00
2022-10-31T04:31:43.987Z,1.50
2022-10-31T08:07:42.760Z,1.30
2022-10-31T08:10:13.585Z,1.30
2022-10-31T08:12:41.603Z,1.00
2022-10-31T08:15:09.450Z,1.10
2022-10-31T08:17:37.378Z,1.70
2022-10-31T08:20:05.642Z,1.20
2022-10-31T08:22:37.593Z,1.90
2022-10-31T08:25:09.109Z,1.20
2022-10-31T08:27:37.910Z,1.00
2022-10-31T08:30:06.304Z,1.00
2022-10-31T08:32:34.513Z,1.30
2022-10-31T08:35:28.101Z,1.10
2022-10-31T08:37:56.156Z,1.30
2022-10-31T08:40:27.382Z,1.60
2022-10-31T08:43:21.376Z,1.10
2022-10-31T08:45:50.092Z,1.60
2022-10-31T08:48:21.256Z,1.80
2022-10-31T08:50:49.249Z,0.90
2022-10-31T08:53:18.150Z,1.10
2022-10-31T08:55:47.593Z,1.10
2022-10-31T08:58:26.247Z,1.00
2022-10-31T09:00:59.735Z,1.50
2022-10-31T09:03:29.908Z,1.20
2022-10-31T09:06:03.250Z,1.40
2022-10-31T09:08:33.325Z,1.00
2022-10-31T09:11:01.719Z,2.30
2022-10-31T09:14:02.130Z,1.30
2022-10-31T09:16:32.352Z,1.30
2022-10-31T09:18:59.663Z,1.10
2022-10-31T09:21:27.702Z,1.10
2022-10-31T09:23:54.852Z,1.20
2022-10-31T09:26:22.391Z,9.60
2022-10-31T09:29:18.923Z,2.50
2022-10-31T09:31:48.515Z,0.90
2022-10-31T09:34:32.676Z,1.00
2022-10-31T09:37:04.436Z,1.00
2022-10-31T09:39:32.198Z,0.80
2022-10-31T09:42:32.052Z,1.10
2022-10-31T09:45:10.638Z,1.90
2022-10-31T09:48:00.675Z,0.90
2022-10-31T09:50:40.169Z,1.30
2022-10-31T09:53:38.276Z,1.00
2022-10-31T09:56:12.372Z,1.30
2022-10-31T09:58:47.073Z,2.10
2022-10-31T10:01:27.779Z,0.90
2022-10-31T10:03:59.116Z,1.10
2022-10-31T10:06:52.967Z,1.10
2022-10-31T10:09:40.605Z,0.90
2022-10-31T10:12:38.987Z,0.80
2022-10-31T10:15:09.200Z,0.90
2022-10-31T10:18:01.241Z,1.10
2022-10-31T10:20:43.634Z,0.80
2022-10-31T10:23:13.378Z,0.80
2022-10-31T10:25:41.236Z,1.00
2022-10-31T10:28:28.121Z,0.90
2022-10-31T10:31:09.797Z,1.10
2022-10-31T10:33:39.569Z,1.20
2022-10-31T10:36:18.740Z,1.10
2022-10-31T10:38:54.484Z,1.10
2022-10-31T10:41:23.492Z,0.80
2022-10-31T10:43:51.152Z,1.30
2022-10-31T10:46:37.633Z,1.20
2022-10-31T10:49:22.996Z,1.50
2022-10-31T10:52:19.223Z,1.30
2022-10-31T10:54:59.622Z,1.20
2022-10-31T10:58:03.181Z,1.10
2022-10-31T11:00:50.938Z,1.10
2022-10-31T11:03:18.193Z,0.80
2022-10-31T11:05:51.928Z,1.20
2022-10-31T11:08:30.955Z,0.90
2022-10-31T11:11:05.436Z,1.10
2022-10-31T11:13:33.558Z,0.90
2022-10-31T11:16:01.509Z,1.10
2022-10-31T11:18:30.849Z,1.10
2022-10-31T11:21:00.014Z,1.10
2022-10-31T11:23:28.040Z,1.20
2022-10-31T11:25:54.922Z,1.20
2022-10-31T11:28:21.964Z,1.20
2022-10-31T11:30:57.498Z,1.00
2022-10-31T11:33:36.147Z,0.90
2022-10-31T11:36:15.026Z,1.20
2022-10-31T11:38:42.401Z,1.20
2022-10-31T11:41:17.999Z,1.50
2022-10-31T11:43:54.451Z,1.30
2022-10-31T11:46:26.695Z,1.40
2022-10-31T11:48:55.052Z,1.20
2022-10-31T11:51:24.217Z,1.20
2022-10-31T11:53:56.683Z,0.90
2022-10-31T11:56:26.985Z,1.30
2022-10-31T11:59:02.693Z,1.30
2022-10-31T12:01:31.360Z,1.30
2022-10-31T12:04:10.206Z,1.80
2022-10-31T12:06:42.472Z,1.10
2022-10-31T12:09:18.588Z,1.70
2022-10-31T12:12:03.933Z,0.90
2022-10-31T12:14:50.258Z,0.80
2022-10-31T12:17:22.879Z,1.40
2022-10-31T12:19:55.383Z,1.10
2022-10-31T12:22:45.385Z,1.30
2022-10-31T12:25:39.608Z,1.40
2022-10-31T12:28:45.432Z,0.80
2022-10-31T12:31:38.584Z,1.10
2022-10-31T12:34:23.833Z,1.30
2022-10-31T12:37:12.393Z,1.30
2022-10-31T12:39:55.784Z,1.30
2022-10-31T12:42:43.070Z,1.30
2022-10-31T12:45:38.208Z,1.40
2022-10-31T12:48:18.525Z,1.10
2022-10-31T12:51:10.620Z,1.90
2022-10-31T12:53:44.194Z,1.10
2022-10-31T12:56:30.607Z,1.10
2022-10-31T12:59:01.750Z,1.40
2022-10-31T13:01:37.617Z,1.20
2022-10-31T13:04:19.158Z,1.30
2022-10-31T13:06:49.610Z,1.90
2022-10-31T13:09:19.977Z,1.50
2022-10-31T13:11:57.188Z,1.50
2022-10-31T13:14:27.570Z,1.40
2022-10-31T13:16:54.759Z,1.50
2022-10-31T13:19:34.673Z,1.70
2022-10-31T13:22:19.256Z,1.50
2022-10-31T13:27:45.432Z,1.20
2022-10-31T13:30:16.686Z,1.20
2022-10-31T13:33:23.468Z,1.40
2022-10-31T13:36:27.803Z,1.40
2022-10-31T13:39:28.303Z,1.20
2022-10-31T13:42:01.523Z,1.70
2022-10-31T13:46:56.913Z,1.20
2022-10-31T13:49:32.650Z,1.90
2022-10-31T13:52:11.969Z,1.70
2022-10-31T13:54:40.061Z,1.70
2022-10-31T13:57:15.756Z,1.50
2022-10-31T13:59:50.988Z,1.40
2022-10-31T14:02:19.734Z,2.00
2022-10-31T14:04:56.619Z,1.80
2022-10-31T14:07:23.561Z,1.60
2022-10-31T14:10:04.740Z,1.20
2022-10-31T14:12:35.295Z,1.50
2022-10-31T14:15:25.408Z,1.60
2022-10-31T14:17:55.668Z,1.60
2022-10-31T14:20:31.043Z,1.80
2022-10-31T14:25:34.559Z,1.90
2022-10-31T14:28:04.217Z,1.70
2022-10-31T14:30:33.664Z,1.50
2022-10-31T14:33:02.044Z,1.30
2022-10-31T14:35:43.828Z,1.90
2022-10-31T14:38:33.612Z,1.80
2022-10-31T14:41:33.389Z,1.90
2022-10-31T14:44:22.323Z,2.10
2022-10-31T14:47:12.400Z,2.00
2022-10-31T14:50:34.169Z,1.50
2022-10-31T14:53:02.544Z,2.00
2022-10-31T14:55:30.060Z,1.80
2022-10-31T14:58:04.980Z,1.50
2022-10-31T15:00:32.760Z,1.60
2022-10-31T15:03:09.620Z,1.70
2022-10-31T15:05:42.563Z,2.00
2022-10-31T15:10:40.031Z,2.60
2022-10-31T15:13:11.571Z,4.60
2022-10-31T15:15:39.092Z,5.30
2022-10-31T15:18:06.274Z,4.60
2022-10-31T15:20:42.491Z,4.70
2022-10-31T15:23:17.489Z,3.30
2022-10-31T15:25:44.395Z,2.90
2022-10-31T15:28:15.945Z,1.90
2022-10-31T15:30:51.021Z,2.00
2022-10-31T15:33:23.976Z,3.00
2022-10-31T15:36:01.591Z,2.60
2022-10-31T15:38:29.519Z,3.50
2022-10-31T15:41:00.956Z,3.30
2022-10-31T15:43:31.350Z,3.50
2022-10-31T15:45:58.299Z,3.80
2022-10-31T15:48:25.493Z,4.80
2022-10-31T15:50:56.083Z,6.30
2022-10-31T15:53:26.849Z,4.50
2022-10-31T15:56:02.473Z,6.40
2022-10-31T15:58:29.588Z,6.30
2022-10-31T16:01:05.527Z,7.20
2022-10-31T16:03:33.635Z,7.60
2022-10-31T16:06:03.967Z,6.20
2022-10-31T16:08:34.789Z,5.50
2022-10-31T16:11:08.194Z,5.50
2022-10-31T16:13:40.943Z,4.50
2022-10-31T16:19:05.437Z,3.60
2022-10-31T16:21:37.970Z,2.30
2022-10-31T16:24:13.997Z,2.70
2022-10-31T16:26:50.541Z,3.30
2022-10-31T16:29:38.526Z,3.40
2022-10-31T16:32:23.036Z,3.20
2022-10-31T16:34:58.668Z,3.10
2022-10-31T16:37:25.661Z,3.30
2022-10-31T16:39:52.908Z,3.50
2022-10-31T16:42:20.207Z,3.80
2022-10-31T16:44:47.582Z,4.00
2022-10-31T16:47:15.941Z,3.90
2022-10-31T16:49:43.816Z,4.30
2022-10-31T16:52:10.861Z,3.60
2022-10-31T16:54:39.559Z,4.70
2022-10-31T16:57:06.749Z,4.50
2022-10-31T16:59:34.337Z,4.90
2022-10-31T17:02:02.589Z,4.50
2022-10-31T17:04:30.061Z,4.70
2022-10-31T17:06:59.600Z,5.40
2022-10-31T17:09:30.123Z,3.70
2022-10-31T17:12:01.802Z,4.20
2022-10-31T17:14:31.953Z,4.20
2022-10-31T17:17:01.281Z,5.00
2022-10-31T17:19:34.357Z,4.80
2022-10-31T17:22:24.631Z,5.60
2022-10-31T17:24:54.188Z,6.60
2022-10-31T17:27:23.714Z,5.80
2022-10-31T17:29:52.976Z,7.10
2022-10-31T17:32:22.616Z,5.50
2022-10-31T17:34:51.611Z,6.00
2022-10-31T17:37:21.612Z,5.90
2022-10-31T17:39:51.131Z,7.20
2022-10-31T17:42:21.659Z,6.10
2022-10-31T17:44:51.655Z,7.00
2022-10-31T17:47:21.650Z,7.70
2022-10-31T17:49:52.626Z,7.00
2022-10-31T17:52:22.160Z,7.80
2022-10-31T17:54:52.656Z,5.60
2022-10-31T17:57:21.670Z,5.40
2022-10-31T17:59:52.657Z,6.10
2022-10-31T18:02:21.802Z,6.70
2022-10-31T18:13:00.902Z,5.70
2022-10-31T18:15:28.191Z,5.70
2022-10-31T18:17:55.356Z,4.20
2022-10-31T18:20:22.506Z,5.30
2022-10-31T18:22:49.650Z,4.90
2022-10-31T18:25:16.802Z,4.90
2022-10-31T18:27:43.958Z,5.00
2022-10-31T18:30:11.714Z,5.10
2022-10-31T18:32:38.758Z,5.00
2022-10-31T18:35:06.441Z,4.80
2022-10-31T18:37:33.573Z,4.70
2022-10-31T18:40:00.619Z,3.70
2022-10-31T18:42:27.774Z,4.30
2022-10-31T18:44:55.021Z,4.50
2022-10-31T18:47:22.824Z,4.40
2022-10-31T18:49:49.945Z,4.80
2022-10-31T18:52:17.040Z,5.20
2022-10-31T18:54:44.970Z,4.50
2022-10-31T18:57:12.102Z,4.60
2022-10-31T18:59:39.158Z,4.70
2022-10-31T19:02:06.756Z,2.80
2022-10-31T19:04:34.061Z,3.30
2022-10-31T19:07:01.315Z,3.90
2022-10-31T19:09:31.140Z,3.80
2022-10-31T19:11:58.169Z,4.20
2022-10-31T19:14:25.323Z,4.40
2022-10-31T19:16:52.750Z,4.30
2022-10-31T19:19:21.264Z,3.90
2022-10-31T19:21:48.485Z,4.60
2022-10-31T19:24:15.571Z,2.70
2022-10-31T19:26:42.706Z,3.30
2022-10-31T19:29:10.265Z,3.70
2022-10-31T19:31:37.325Z,3.80
2022-10-31T19:34:04.570Z,3.90
2022-10-31T19:36:31.720Z,3.90
2022-10-31T19:38:58.760Z,3.50
2022-10-31T19:41:27.499Z,4.60
2022-10-31T19:43:54.616Z,2.70
2022-10-31T19:46:40.373Z,3.00
2022-10-31T19:49:10.527Z,3.20
2022-10-31T19:51:37.683Z,2.90
2022-10-31T19:54:05.262Z,3.60
2022-10-31T19:56:32.260Z,3.60
2022-10-31T19:59:04.086Z,3.30
2022-10-31T20:01:31.278Z,4.00
2022-10-31T20:03:58.519Z,4.10
2022-10-31T20:06:29.673Z,2.60
2022-10-31T20:08:57.324Z,2.90
2022-10-31T20:11:25.395Z,3.80
2022-10-31T20:13:52.543Z,3.00
2022-10-31T20:16:19.567Z,3.60
2022-10-31T20:18:47.292Z,3.70
2022-10-31T20:21:20.648Z,3.00
2022-10-31T20:23:48.006Z,4.00
2022-10-31T20:26:17.344Z,2.00
2022-10-31T20:28:45.774Z,3.30
2022-10-31T20:31:21.186Z,3.10
2022-10-31T20:33:48.710Z,3.00
2022-10-31T20:36:19.739Z,4.00
2022-10-31T20:38:47.078Z,3.70
2022-10-31T20:41:15.194Z,3.80
2022-10-31T20:43:42.403Z,3.90
2022-10-31T20:46:17.623Z,2.60
2022-10-31T20:48:45.117Z,3.40
2022-10-31T20:53:41.381Z,3.40
2022-10-31T20:56:13.816Z,3.40
2022-10-31T20:58:41.686Z,3.70
2022-10-31T21:01:15.137Z,4.00
2022-10-31T21:03:42.364Z,4.00
2022-10-31T21:06:09.604Z,2.80
2022-10-31T21:08:37.070Z,3.40
2022-10-31T21:11:09.405Z,4.00
2022-10-31T21:13:40.684Z,3.80
2022-10-31T21:16:10.570Z,3.40
2022-10-31T21:18:38.647Z,4.30
2022-10-31T21:21:30.725Z,4.30
2022-10-31T21:24:11.197Z,4.50
2022-10-31T21:26:40.386Z,3.20
2022-10-31T21:29:07.788Z,3.80
2022-10-31T21:31:35.964Z,4.20
2022-10-31T21:34:03.323Z,4.60
2022-10-31T21:36:30.441Z,4.50
2022-10-31T21:38:57.524Z,3.90
2022-10-31T21:41:25.075Z,4.00
2022-10-31T21:43:54.517Z,3.60
2022-10-31T21:46:24.030Z,2.40
2022-10-31T21:48:51.015Z,3.30
2022-10-31T21:51:20.799Z,3.70
2022-10-31T21:54:06.728Z,3.40
2022-10-31T21:56:33.878Z,3.00
2022-10-31T21:59:01.026Z,3.60
2022-10-31T22:01:29.545Z,4.00
2022-10-31T22:03:57.580Z,3.70
2022-10-31T22:06:26.848Z,2.40
2022-10-31T22:08:59.125Z,3.90
2022-10-31T22:11:26.306Z,3.60
2022-10-31T22:13:53.454Z,3.60
2022-10-31T22:16:21.730Z,3.70
2022-10-31T22:18:54.774Z,3.90
2022-10-31T22:21:26.093Z,4.40
2022-10-31T22:24:00.567Z,4.50
2022-10-31T22:26:30.539Z,2.20
2022-10-31T22:28:59.895Z,3.70
2022-10-31T22:31:27.381Z,3.50
2022-10-31T22:33:54.644Z,3.00
2022-10-31T22:36:24.498Z,3.40
2022-10-31T22:38:51.604Z,3.70
2022-10-31T22:41:20.259Z,3.60
2022-10-31T22:43:47.665Z,4.60
2022-10-31T22:46:19.474Z,2.10
2022-10-31T22:48:51.840Z,2.90
2022-10-31T22:51:19.888Z,3.20
2022-10-31T22:53:47.079Z,3.70
2022-10-31T22:56:16.749Z,3.10
2022-10-31T22:58:43.927Z,4.00
2022-10-31T23:01:15.266Z,4.20
2022-10-31T23:03:42.603Z,3.90
2022-10-31T23:06:14.974Z,2.30
2022-10-31T23:08:42.160Z,5.00
2022-10-31T23:11:26.808Z,4.30
2022-10-31T23:14:13.884Z,3.70
2022-10-31T23:16:46.914Z,3.80
2022-10-31T23:19:16.917Z,3.90
2022-10-31T23:21:56.150Z,4.00
2022-10-31T23:24:29.752Z,2.70
2022-10-31T23:27:09.451Z,5.30
2022-10-31T23:29:37.922Z,4.50
2022-10-31T23:32:06.152Z,3.90
2022-10-31T23:34:33.160Z,3.90
2022-10-31T23:37:00.303Z,4.30
2022-10-31T23:39:27.381Z,4.10
2022-10-31T23:41:54.407Z,4.40
2022-10-31T23:44:21.591Z,2.30
2022-10-31T23:46:48.616Z,2.80
2022-10-31T23:49:15.688Z,3.60
2022-10-31T23:51:42.797Z,3.90
2022-10-31T23:54:09.995Z,4.10
2022-10-31T23:56:37.054Z,4.70
2022-10-31T23:59:04.297Z,4.20
